メインページ
METAR-TAF:

METAR-TAF

空港 :

マタベリ国際空港

イースター島, チリ

緯度: 27-09S, 経度: 109-25W, 海抜: 51m

現時点の気象観測

当レポートは30分前の01:00(UTC)に作成
西の風 9kt
気温 20°C
湿度 88%
気圧 1014 hPa
視程10km以上
高度2000ftの雲は散在している

METAR: SCIP 190100Z 28009KT 9999 SCT020 20/18 Q1014 NOSIG

時間: 20:30 (01:30 UTC)

予報

当レポートは3時間3分前の22:27(UTC)に作成
予報は19日の 00時(UTC)から 20日の 00時(UTC)まで有効
西/北西の風 12kt
視程10km以上
高度2000ftの雲は散在している
19日の 00時(UTC)から 19日の 03時(UTC)まで一時的に
西/南西の風 5kt
視程: 8000m
高度1600ftの千切れ雲あり
弱いにわか雨
19日の 04時(UTC)から 19日の 06時(UTC)まで徐々に
西/北西の風 5kt
19日の 10時(UTC)から 19日の 13時(UTC)まで一時的に
変向風 4kt
視程: 8000m
高度2000ftの雲は散在している
高度4000ftの千切れ雲あり
弱いにわか雨
19日の 14時(UTC)から 19日の 16時(UTC)まで徐々に
高度2000ftの雲はほとんどない
高度4000ftの雲は散在している
19日の 22時(UTC)から 20日の 00時(UTC)まで一時的に
変向風 4kt
視程: 8000m
高度2000ftの雲は散在している
高度4000ftの千切れ雲あり
弱いにわか雨

TAF: SCIP 182227Z 1900/2000 29012KT 9999 SCT020 TN15/1911Z TX22/1920Z TEMPO 1900/1903 24005KT 8000 -SHRA BKN016 BECMG 1904/1906 29005KT TEMPO 1910/1913 VRB04KT 8000 -SHRA SCT020 BKN040 BECMG 1914/1916 FEW020 SCT040 TEMPO 1922/2000 VRB04KT 8000 -SHRA SCT020 BKN040

4,000以上の空港の気象観測と天気予報(METAR報とTAF報)

利用可能な観測所は地図上に黄色い丸と赤い丸で示す。

丸の上にカーソルを重ねると観測所名を参照できる。

次にクリックすると気象観測と天気予報を参照できる。

マップの切り替え:黒色「×」印の緑ボタンをクリックして拡大、「-」印の緑ボタンをクリックして縮小、緑色の三角印をクリックして隣りの地図に切り替え


METAR-TAF: